sensor_id;sensor_type;location;lat;lon;timestamp;temperature;humidity
21662;DHT22;10992;48.170;8.596;2022-07-30T00:00:15;16.60;99.90
21662;DHT22;10992;48.170;8.596;2022-07-30T00:02:51;16.60;99.90
21662;DHT22;10992;48.170;8.596;2022-07-30T00:05:18;16.60;99.90
21662;DHT22;10992;48.170;8.596;2022-07-30T00:07:45;16.60;99.90
21662;DHT22;10992;48.170;8.596;2022-07-30T00:10:12;16.60;99.90
21662;DHT22;10992;48.170;8.596;2022-07-30T00:12:39;16.60;99.90
21662;DHT22;10992;48.170;8.596;2022-07-30T00:15:06;16.60;99.90
21662;DHT22;10992;48.170;8.596;2022-07-30T00:17:33;16.70;99.90
21662;DHT22;10992;48.170;8.596;2022-07-30T00:20:00;16.70;99.90
21662;DHT22;10992;48.170;8.596;2022-07-30T00:22:29;16.70;99.90
21662;DHT22;10992;48.170;8.596;2022-07-30T00:24:56;16.70;99.90
21662;DHT22;10992;48.170;8.596;2022-07-30T00:27:24;16.70;99.90
21662;DHT22;10992;48.170;8.596;2022-07-30T00:29:51;16.70;99.90
21662;DHT22;10992;48.170;8.596;2022-07-30T00:32:18;16.70;99.90
21662;DHT22;10992;48.170;8.596;2022-07-30T00:34:45;16.70;99.90
21662;DHT22;10992;48.170;8.596;2022-07-30T00:37:12;16.80;99.90
21662;DHT22;10992;48.170;8.596;2022-07-30T00:39:39;16.70;99.90
21662;DHT22;10992;48.170;8.596;2022-07-30T00:42:06;16.60;99.90
21662;DHT22;10992;48.170;8.596;2022-07-30T00:44:32;16.70;99.90
21662;DHT22;10992;48.170;8.596;2022-07-30T00:46:59;16.70;99.90
21662;DHT22;10992;48.170;8.596;2022-07-30T00:49:27;16.70;99.90
21662;DHT22;10992;48.170;8.596;2022-07-30T00:51:54;16.70;99.90
21662;DHT22;10992;48.170;8.596;2022-07-30T00:54:21;16.50;99.90
21662;DHT22;10992;48.170;8.596;2022-07-30T00:56:48;16.30;99.90
21662;DHT22;10992;48.170;8.596;2022-07-30T00:59:15;16.20;99.90
21662;DHT22;10992;48.170;8.596;2022-07-30T01:01:42;16.10;99.90
21662;DHT22;10992;48.170;8.596;2022-07-30T01:04:10;16.00;99.90
21662;DHT22;10992;48.170;8.596;2022-07-30T01:06:38;15.90;99.90
21662;DHT22;10992;48.170;8.596;2022-07-30T01:09:06;15.70;99.90
21662;DHT22;10992;48.170;8.596;2022-07-30T01:11:39;15.60;99.90
21662;DHT22;10992;48.170;8.596;2022-07-30T01:14:07;15.50;99.90
21662;DHT22;10992;48.170;8.596;2022-07-30T01:16:36;15.30;99.90
21662;DHT22;10992;48.170;8.596;2022-07-30T01:19:08;15.20;99.90
21662;DHT22;10992;48.170;8.596;2022-07-30T01:22:08;15.20;99.90
21662;DHT22;10992;48.170;8.596;2022-07-30T01:24:40;15.00;99.90
21662;DHT22;10992;48.170;8.596;2022-07-30T01:27:10;14.90;99.90
21662;DHT22;10992;48.170;8.596;2022-07-30T01:29:45;14.80;99.90
21662;DHT22;10992;48.170;8.596;2022-07-30T01:32:14;14.80;99.90
21662;DHT22;10992;48.170;8.596;2022-07-30T01:34:42;14.70;99.90
21662;DHT22;10992;48.170;8.596;2022-07-30T01:37:10;14.80;99.90
21662;DHT22;10992;48.170;8.596;2022-07-30T01:39:38;14.70;99.90
21662;DHT22;10992;48.170;8.596;2022-07-30T01:42:06;14.60;99.90
21662;DHT22;10992;48.170;8.596;2022-07-30T01:44:36;14.50;99.90
21662;DHT22;10992;48.170;8.596;2022-07-30T01:47:04;14.50;99.90
21662;DHT22;10992;48.170;8.596;2022-07-30T01:49:34;14.40;99.90
21662;DHT22;10992;48.170;8.596;2022-07-30T01:52:03;14.40;99.90
21662;DHT22;10992;48.170;8.596;2022-07-30T01:54:32;14.30;99.90
21662;DHT22;10992;48.170;8.596;2022-07-30T01:57:00;14.30;99.90
21662;DHT22;10992;48.170;8.596;2022-07-30T01:59:31;14.20;99.90
21662;DHT22;10992;48.170;8.596;2022-07-30T02:01:59;14.10;99.90
21662;DHT22;10992;48.170;8.596;2022-07-30T02:04:26;14.10;99.90
21662;DHT22;10992;48.170;8.596;2022-07-30T02:07:23;14.00;99.90
21662;DHT22;10992;48.170;8.596;2022-07-30T02:09:58;13.90;99.90
21662;DHT22;10992;48.170;8.596;2022-07-30T02:12:35;14.00;99.90
21662;DHT22;10992;48.170;8.596;2022-07-30T02:17:40;14.30;99.90
21662;DHT22;10992;48.170;8.596;2022-07-30T02:20:12;14.40;99.90
21662;DHT22;10992;48.170;8.596;2022-07-30T02:22:43;14.40;99.90
21662;DHT22;10992;48.170;8.596;2022-07-30T02:25:14;14.40;99.90
21662;DHT22;10992;48.170;8.596;2022-07-30T02:27:43;14.30;99.90
21662;DHT22;10992;48.170;8.596;2022-07-30T02:30:18;14.20;99.90
21662;DHT22;10992;48.170;8.596;2022-07-30T02:32:50;14.10;99.90
21662;DHT22;10992;48.170;8.596;2022-07-30T02:35:20;14.00;99.90
21662;DHT22;10992;48.170;8.596;2022-07-30T02:37:50;14.00;99.90
21662;DHT22;10992;48.170;8.596;2022-07-30T02:40:19;13.90;99.90
21662;DHT22;10992;48.170;8.596;2022-07-30T02:42:48;14.00;99.90
21662;DHT22;10992;48.170;8.596;2022-07-30T02:45:19;14.00;99.90
21662;DHT22;10992;48.170;8.596;2022-07-30T02:47:49;14.00;99.90
21662;DHT22;10992;48.170;8.596;2022-07-30T02:50:18;14.00;99.90
21662;DHT22;10992;48.170;8.596;2022-07-30T02:52:46;14.10;99.90
21662;DHT22;10992;48.170;8.596;2022-07-30T02:55:17;14.00;99.90
21662;DHT22;10992;48.170;8.596;2022-07-30T02:57:45;13.90;99.90
21662;DHT22;10992;48.170;8.596;2022-07-30T03:00:12;13.70;99.90
21662;DHT22;10992;48.170;8.596;2022-07-30T03:02:41;13.50;99.90
21662;DHT22;10992;48.170;8.596;2022-07-30T03:05:10;13.50;99.90
21662;DHT22;10992;48.170;8.596;2022-07-30T03:07:39;13.40;99.90
21662;DHT22;10992;48.170;8.596;2022-07-30T03:10:07;13.20;99.90
21662;DHT22;10992;48.170;8.596;2022-07-30T03:12:35;13.20;99.90
21662;DHT22;10992;48.170;8.596;2022-07-30T03:15:03;13.20;99.90
21662;DHT22;10992;48.170;8.596;2022-07-30T03:17:36;13.10;99.90
21662;DHT22;10992;48.170;8.596;2022-07-30T03:20:07;13.00;99.90
21662;DHT22;10992;48.170;8.596;2022-07-30T03:22:41;13.00;99.90
21662;DHT22;10992;48.170;8.596;2022-07-30T03:25:09;12.90;99.90
21662;DHT22;10992;48.170;8.596;2022-07-30T03:27:39;12.90;99.90
21662;DHT22;10992;48.170;8.596;2022-07-30T03:30:09;12.90;99.90
21662;DHT22;10992;48.170;8.596;2022-07-30T03:32:36;12.70;99.90
21662;DHT22;10992;48.170;8.596;2022-07-30T03:35:06;12.60;99.90
21662;DHT22;10992;48.170;8.596;2022-07-30T03:37:44;12.60;99.90
21662;DHT22;10992;48.170;8.596;2022-07-30T03:40:12;12.60;99.90
21662;DHT22;10992;48.170;8.596;2022-07-30T03:42:41;12.50;99.90
21662;DHT22;10992;48.170;8.596;2022-07-30T03:45:10;12.50;99.90
21662;DHT22;10992;48.170;8.596;2022-07-30T03:47:40;12.50;99.90
21662;DHT22;10992;48.170;8.596;2022-07-30T03:50:10;12.50;99.90
21662;DHT22;10992;48.170;8.596;2022-07-30T03:52:39;12.60;99.90
21662;DHT22;10992;48.170;8.596;2022-07-30T03:55:11;12.70;99.90
21662;DHT22;10992;48.170;8.596;2022-07-30T03:57:47;12.70;99.90
21662;DHT22;10992;48.170;8.596;2022-07-30T04:00:16;12.70;99.90
21662;DHT22;10992;48.170;8.596;2022-07-30T04:02:48;12.80;99.90
21662;DHT22;10992;48.170;8.596;2022-07-30T04:05:28;12.70;99.90
21662;DHT22;10992;48.170;8.596;2022-07-30T04:08:09;12.80;99.90
21662;DHT22;10992;48.170;8.596;2022-07-30T04:10:37;12.70;99.90
21662;DHT22;10992;48.170;8.596;2022-07-30T04:13:23;12.80;99.90
21662;DHT22;10992;48.170;8.596;2022-07-30T04:16:10;12.90;99.90
21662;DHT22;10992;48.170;8.596;2022-07-30T04:18:59;13.00;99.90
21662;DHT22;10992;48.170;8.596;2022-07-30T04:21:28;13.10;99.90
21662;DHT22;10992;48.170;8.596;2022-07-30T04:23:56;13.10;99.90
21662;DHT22;10992;48.170;8.596;2022-07-30T04:26:34;13.20;99.90
21662;DHT22;10992;48.170;8.596;2022-07-30T04:29:05;13.20;99.90
21662;DHT22;10992;48.170;8.596;2022-07-30T04:31:32;13.30;99.90
21662;DHT22;10992;48.170;8.596;2022-07-30T04:34:25;13.30;99.90
21662;DHT22;10992;48.170;8.596;2022-07-30T04:36:51;13.50;99.90
21662;DHT22;10992;48.170;8.596;2022-07-30T04:39:18;13.50;99.90
21662;DHT22;10992;48.170;8.596;2022-07-30T04:41:45;13.60;99.90
21662;DHT22;10992;48.170;8.596;2022-07-30T04:44:38;13.60;99.90
21662;DHT22;10992;48.170;8.596;2022-07-30T04:47:26;13.60;99.90
21662;DHT22;10992;48.170;8.596;2022-07-30T04:50:16;13.70;99.90
21662;DHT22;10992;48.170;8.596;2022-07-30T04:52:46;13.80;99.90
21662;DHT22;10992;48.170;8.596;2022-07-30T04:55:20;13.90;99.90
21662;DHT22;10992;48.170;8.596;2022-07-30T04:57:49;14.10;99.90
21662;DHT22;10992;48.170;8.596;2022-07-30T05:00:17;14.20;99.90
21662;DHT22;10992;48.170;8.596;2022-07-30T05:02:46;14.30;99.90
21662;DHT22;10992;48.170;8.596;2022-07-30T05:05:15;14.40;99.90
21662;DHT22;10992;48.170;8.596;2022-07-30T05:07:44;14.30;99.90
21662;DHT22;10992;48.170;8.596;2022-07-30T05:10:13;14.40;99.90
21662;DHT22;10992;48.170;8.596;2022-07-30T05:12:41;14.30;99.90
21662;DHT22;10992;48.170;8.596;2022-07-30T05:15:09;14.50;99.90
21662;DHT22;10992;48.170;8.596;2022-07-30T05:17:36;15.80;99.90
21662;DHT22;10992;48.170;8.596;2022-07-30T05:20:06;17.70;99.90
21662;DHT22;10992;48.170;8.596;2022-07-30T05:22:56;19.10;99.90
21662;DHT22;10992;48.170;8.596;2022-07-30T05:25:24;19.60;99.90
21662;DHT22;10992;48.170;8.596;2022-07-30T05:28:05;20.20;99.90
21662;DHT22;10992;48.170;8.596;2022-07-30T05:30:36;21.80;99.90
21662;DHT22;10992;48.170;8.596;2022-07-30T05:33:09;22.60;99.90
21662;DHT22;10992;48.170;8.596;2022-07-30T05:35:41;22.60;99.90
21662;DHT22;10992;48.170;8.596;2022-07-30T05:38:08;23.40;99.90
21662;DHT22;10992;48.170;8.596;2022-07-30T05:40:47;24.10;99.90
21662;DHT22;10992;48.170;8.596;2022-07-30T05:43:37;24.20;99.90
21662;DHT22;10992;48.170;8.596;2022-07-30T05:46:04;24.90;99.90
21662;DHT22;10992;48.170;8.596;2022-07-30T05:48:31;25.00;99.90
21662;DHT22;10992;48.170;8.596;2022-07-30T05:51:01;24.20;99.90
21662;DHT22;10992;48.170;8.596;2022-07-30T05:53:29;23.80;99.90
21662;DHT22;10992;48.170;8.596;2022-07-30T05:56:08;23.90;99.90
21662;DHT22;10992;48.170;8.596;2022-07-30T05:59:00;24.50;99.90
21662;DHT22;10992;48.170;8.596;2022-07-30T06:01:56;25.60;99.90
21662;DHT22;10992;48.170;8.596;2022-07-30T06:04:31;26.20;99.90
21662;DHT22;10992;48.170;8.596;2022-07-30T06:07:02;26.50;99.90
21662;DHT22;10992;48.170;8.596;2022-07-30T06:09:31;27.30;99.90
21662;DHT22;10992;48.170;8.596;2022-07-30T06:12:04;28.00;99.90
21662;DHT22;10992;48.170;8.596;2022-07-30T06:14:31;28.20;99.90
21662;DHT22;10992;48.170;8.596;2022-07-30T06:16:58;28.60;99.90
21662;DHT22;10992;48.170;8.596;2022-07-30T06:19:34;29.60;99.90
21662;DHT22;10992;48.170;8.596;2022-07-30T06:22:00;29.10;99.90
21662;DHT22;10992;48.170;8.596;2022-07-30T06:24:35;29.00;99.90
21662;DHT22;10992;48.170;8.596;2022-07-30T06:27:08;29.20;99.90
21662;DHT22;10992;48.170;8.596;2022-07-30T06:29:35;29.50;99.90
21662;DHT22;10992;48.170;8.596;2022-07-30T06:32:03;30.20;99.90
21662;DHT22;10992;48.170;8.596;2022-07-30T06:34:30;30.80;99.90
21662;DHT22;10992;48.170;8.596;2022-07-30T06:36:58;30.80;99.90
21662;DHT22;10992;48.170;8.596;2022-07-30T06:39:26;30.60;99.90
21662;DHT22;10992;48.170;8.596;2022-07-30T06:42:27;30.80;99.90
21662;DHT22;10992;48.170;8.596;2022-07-30T06:45:19;31.00;99.90
21662;DHT22;10992;48.170;8.596;2022-07-30T06:48:06;30.50;99.90
21662;DHT22;10992;48.170;8.596;2022-07-30T06:50:34;31.20;99.50
21662;DHT22;10992;48.170;8.596;2022-07-30T06:53:02;30.50;99.90
21662;DHT22;10992;48.170;8.596;2022-07-30T06:55:49;30.80;99.90
21662;DHT22;10992;48.170;8.596;2022-07-30T06:58:20;31.20;98.90
21662;DHT22;10992;48.170;8.596;2022-07-30T07:01:23;30.00;99.90
21662;DHT22;10992;48.170;8.596;2022-07-30T07:03:52;30.90;98.70
21662;DHT22;10992;48.170;8.596;2022-07-30T07:06:19;31.30;97.90
21662;DHT22;10992;48.170;8.596;2022-07-30T07:08:46;31.20;98.50
21662;DHT22;10992;48.170;8.596;2022-07-30T07:11:17;28.90;98.70
21662;DHT22;10992;48.170;8.596;2022-07-30T07:13:49;27.80;99.70
21662;DHT22;10992;48.170;8.596;2022-07-30T07:16:24;29.40;98.50
21662;DHT22;10992;48.170;8.596;2022-07-30T07:18:54;30.10;96.80
21662;DHT22;10992;48.170;8.596;2022-07-30T07:21:21;31.50;95.40
21662;DHT22;10992;48.170;8.596;2022-07-30T07:23:51;32.20;94.70
21662;DHT22;10992;48.170;8.596;2022-07-30T07:26:53;32.20;93.80
21662;DHT22;10992;48.170;8.596;2022-07-30T07:29:20;31.50;94.00
21662;DHT22;10992;48.170;8.596;2022-07-30T07:31:47;30.20;93.60
21662;DHT22;10992;48.170;8.596;2022-07-30T07:34:34;29.20;95.60
21662;DHT22;10992;48.170;8.596;2022-07-30T07:37:00;30.20;94.00
21662;DHT22;10992;48.170;8.596;2022-07-30T07:39:28;29.80;95.30
21662;DHT22;10992;48.170;8.596;2022-07-30T07:41:55;31.00;93.80
21662;DHT22;10992;48.170;8.596;2022-07-30T07:44:24;31.70;92.90
21662;DHT22;10992;48.170;8.596;2022-07-30T07:46:51;31.70;92.80
21662;DHT22;10992;48.170;8.596;2022-07-30T07:49:18;31.00;91.90
21662;DHT22;10992;48.170;8.596;2022-07-30T07:51:49;31.30;92.50
21662;DHT22;10992;48.170;8.596;2022-07-30T07:54:17;31.80;91.20
21662;DHT22;10992;48.170;8.596;2022-07-30T07:56:49;31.30;91.90
21662;DHT22;10992;48.170;8.596;2022-07-30T07:59:21;30.20;91.20
21662;DHT22;10992;48.170;8.596;2022-07-30T08:01:53;31.00;91.20
21662;DHT22;10992;48.170;8.596;2022-07-30T08:04:46;32.00;90.00
21662;DHT22;10992;48.170;8.596;2022-07-30T08:07:32;32.80;89.60
21662;DHT22;10992;48.170;8.596;2022-07-30T08:10:24;32.20;88.30
21662;DHT22;10992;48.170;8.596;2022-07-30T08:13:00;32.90;88.70
21662;DHT22;10992;48.170;8.596;2022-07-30T08:15:48;32.60;85.50
21662;DHT22;10992;48.170;8.596;2022-07-30T08:18:38;33.00;83.80
21662;DHT22;10992;48.170;8.596;2022-07-30T08:21:15;31.20;87.80
21662;DHT22;10992;48.170;8.596;2022-07-30T08:23:42;31.20;84.40
21662;DHT22;10992;48.170;8.596;2022-07-30T08:26:10;31.80;87.00
21662;DHT22;10992;48.170;8.596;2022-07-30T08:28:37;32.30;84.20
21662;DHT22;10992;48.170;8.596;2022-07-30T08:31:06;32.40;84.60
21662;DHT22;10992;48.170;8.596;2022-07-30T08:33:33;31.80;84.20
21662;DHT22;10992;48.170;8.596;2022-07-30T08:36:02;30.70;84.50
21662;DHT22;10992;48.170;8.596;2022-07-30T08:38:35;31.30;86.50
21662;DHT22;10992;48.170;8.596;2022-07-30T08:41:03;31.00;83.00
21662;DHT22;10992;48.170;8.596;2022-07-30T08:43:30;32.10;81.30
21662;DHT22;10992;48.170;8.596;2022-07-30T08:45:59;30.80;84.80
21662;DHT22;10992;48.170;8.596;2022-07-30T08:48:41;28.90;85.50
21662;DHT22;10992;48.170;8.596;2022-07-30T08:51:11;28.60;89.80
21662;DHT22;10992;48.170;8.596;2022-07-30T08:53:59;28.90;90.00
21662;DHT22;10992;48.170;8.596;2022-07-30T08:56:29;30.50;88.60
21662;DHT22;10992;48.170;8.596;2022-07-30T08:58:56;30.90;85.80
21662;DHT22;10992;48.170;8.596;2022-07-30T09:01:23;31.00;84.40
21662;DHT22;10992;48.170;8.596;2022-07-30T09:03:54;30.50;83.80
21662;DHT22;10992;48.170;8.596;2022-07-30T09:06:24;29.90;86.10
21662;DHT22;10992;48.170;8.596;2022-07-30T09:08:51;29.90;87.30
21662;DHT22;10992;48.170;8.596;2022-07-30T09:11:18;30.30;88.30
21662;DHT22;10992;48.170;8.596;2022-07-30T09:13:46;29.40;88.80
21662;DHT22;10992;48.170;8.596;2022-07-30T09:16:22;28.80;91.00
21662;DHT22;10992;48.170;8.596;2022-07-30T09:18:50;29.10;90.00
21662;DHT22;10992;48.170;8.596;2022-07-30T09:21:25;30.20;90.00
21662;DHT22;10992;48.170;8.596;2022-07-30T09:24:13;29.40;90.60
21662;DHT22;10992;48.170;8.596;2022-07-30T09:27:03;30.00;90.10
21662;DHT22;10992;48.170;8.596;2022-07-30T09:30:07;30.40;88.30
21662;DHT22;10992;48.170;8.596;2022-07-30T09:32:54;30.00;89.00
21662;DHT22;10992;48.170;8.596;2022-07-30T09:35:44;29.40;90.00
21662;DHT22;10992;48.170;8.596;2022-07-30T09:38:46;30.40;87.00
21662;DHT22;10992;48.170;8.596;2022-07-30T09:41:34;31.30;86.90
21662;DHT22;10992;48.170;8.596;2022-07-30T09:44:08;31.20;85.70
21662;DHT22;10992;48.170;8.596;2022-07-30T09:46:43;28.40;89.50
21662;DHT22;10992;48.170;8.596;2022-07-30T09:49:19;28.60;90.90
21662;DHT22;10992;48.170;8.596;2022-07-30T09:51:47;28.90;89.10
21662;DHT22;10992;48.170;8.596;2022-07-30T09:54:24;30.60;88.30
21662;DHT22;10992;48.170;8.596;2022-07-30T09:57:19;31.60;84.20
21662;DHT22;10992;48.170;8.596;2022-07-30T10:00:19;32.40;84.70
21662;DHT22;10992;48.170;8.596;2022-07-30T10:03:20;30.10;83.90
21662;DHT22;10992;48.170;8.596;2022-07-30T10:06:35;27.50;89.10
21662;DHT22;10992;48.170;8.596;2022-07-30T10:09:34;27.50;90.50
21662;DHT22;10992;48.170;8.596;2022-07-30T10:12:04;29.90;85.70
21662;DHT22;10992;48.170;8.596;2022-07-30T10:14:37;31.00;82.60
21662;DHT22;10992;48.170;8.596;2022-07-30T10:17:11;31.00;84.00
21662;DHT22;10992;48.170;8.596;2022-07-30T10:19:49;31.50;83.80
21662;DHT22;10992;48.170;8.596;2022-07-30T10:22:35;32.50;79.40
21662;DHT22;10992;48.170;8.596;2022-07-30T10:25:29;32.80;78.90
21662;DHT22;10992;48.170;8.596;2022-07-30T10:28:08;32.40;80.30
21662;DHT22;10992;48.170;8.596;2022-07-30T10:30:35;32.50;80.50
21662;DHT22;10992;48.170;8.596;2022-07-30T10:33:02;31.70;80.00
21662;DHT22;10992;48.170;8.596;2022-07-30T10:35:30;31.60;79.80
21662;DHT22;10992;48.170;8.596;2022-07-30T10:38:09;30.10;81.70
21662;DHT22;10992;48.170;8.596;2022-07-30T10:40:55;29.60;87.00
21662;DHT22;10992;48.170;8.596;2022-07-30T10:44:07;30.50;85.20
21662;DHT22;10992;48.170;8.596;2022-07-30T10:47:00;31.30;79.90
21662;DHT22;10992;48.170;8.596;2022-07-30T10:49:33;31.40;79.90
21662;DHT22;10992;48.170;8.596;2022-07-30T10:52:07;31.70;80.50
21662;DHT22;10992;48.170;8.596;2022-07-30T10:54:42;32.10;79.50
21662;DHT22;10992;48.170;8.596;2022-07-30T10:57:15;31.80;80.40
21662;DHT22;10992;48.170;8.596;2022-07-30T11:02:28;30.50;81.90
21662;DHT22;10992;48.170;8.596;2022-07-30T11:07:47;28.70;85.50
21662;DHT22;10992;48.170;8.596;2022-07-30T11:10:41;28.00;87.80
21662;DHT22;10992;48.170;8.596;2022-07-30T11:13:09;27.20;88.40
21662;DHT22;10992;48.170;8.596;2022-07-30T11:15:56;27.40;90.00
21662;DHT22;10992;48.170;8.596;2022-07-30T11:18:25;28.80;86.60
21662;DHT22;10992;48.170;8.596;2022-07-30T11:21:16;28.80;84.30
21662;DHT22;10992;48.170;8.596;2022-07-30T11:23:48;29.70;83.60
21662;DHT22;10992;48.170;8.596;2022-07-30T11:29:39;30.80;81.70
21662;DHT22;10992;48.170;8.596;2022-07-30T11:35:26;30.30;80.60
21662;DHT22;10992;48.170;8.596;2022-07-30T11:38:14;29.80;83.80
21662;DHT22;10992;48.170;8.596;2022-07-30T11:43:31;30.00;80.30
21662;DHT22;10992;48.170;8.596;2022-07-30T11:48:32;29.20;81.80
21662;DHT22;10992;48.170;8.596;2022-07-30T11:51:00;28.50;84.70
21662;DHT22;10992;48.170;8.596;2022-07-30T11:53:30;29.20;81.70
21662;DHT22;10992;48.170;8.596;2022-07-30T11:55:59;29.00;81.70
21662;DHT22;10992;48.170;8.596;2022-07-30T11:58:27;30.30;81.60
21662;DHT22;10992;48.170;8.596;2022-07-30T12:00:56;30.60;79.10
21662;DHT22;10992;48.170;8.596;2022-07-30T12:03:25;29.90;80.60
21662;DHT22;10992;48.170;8.596;2022-07-30T12:05:55;30.60;79.20
21662;DHT22;10992;48.170;8.596;2022-07-30T12:08:22;29.70;81.60
21662;DHT22;10992;48.170;8.596;2022-07-30T12:11:02;30.90;80.10
21662;DHT22;10992;48.170;8.596;2022-07-30T12:13:29;31.50;80.00
21662;DHT22;10992;48.170;8.596;2022-07-30T12:16:16;31.60;78.10
21662;DHT22;10992;48.170;8.596;2022-07-30T12:18:45;31.60;77.50
21662;DHT22;10992;48.170;8.596;2022-07-30T12:21:13;31.00;78.70
21662;DHT22;10992;48.170;8.596;2022-07-30T12:24:12;31.00;78.90
21662;DHT22;10992;48.170;8.596;2022-07-30T12:26:40;30.00;79.10
21662;DHT22;10992;48.170;8.596;2022-07-30T12:29:09;29.70;80.50
21662;DHT22;10992;48.170;8.596;2022-07-30T12:31:40;28.80;81.00
21662;DHT22;10992;48.170;8.596;2022-07-30T12:34:25;28.40;81.80
21662;DHT22;10992;48.170;8.596;2022-07-30T12:36:53;28.60;83.20
21662;DHT22;10992;48.170;8.596;2022-07-30T12:39:23;29.70;82.40
21662;DHT22;10992;48.170;8.596;2022-07-30T12:41:51;29.80;80.70
21662;DHT22;10992;48.170;8.596;2022-07-30T12:44:38;30.20;80.30
21662;DHT22;10992;48.170;8.596;2022-07-30T12:47:19;30.40;79.70
21662;DHT22;10992;48.170;8.596;2022-07-30T12:49:48;30.00;80.80
21662;DHT22;10992;48.170;8.596;2022-07-30T12:52:31;29.00;80.60
21662;DHT22;10992;48.170;8.596;2022-07-30T12:57:51;29.50;83.40
21662;DHT22;10992;48.170;8.596;2022-07-30T13:00:18;29.80;81.20
21662;DHT22;10992;48.170;8.596;2022-07-30T13:02:45;30.60;80.80
21662;DHT22;10992;48.170;8.596;2022-07-30T13:05:13;31.10;80.30
21662;DHT22;10992;48.170;8.596;2022-07-30T13:07:59;30.60;81.30
21662;DHT22;10992;48.170;8.596;2022-07-30T13:10:27;31.30;80.60
21662;DHT22;10992;48.170;8.596;2022-07-30T13:12:57;30.70;80.80
21662;DHT22;10992;48.170;8.596;2022-07-30T13:15:24;30.80;80.00
21662;DHT22;10992;48.170;8.596;2022-07-30T13:17:52;30.80;80.40
21662;DHT22;10992;48.170;8.596;2022-07-30T13:20:19;31.10;79.70
21662;DHT22;10992;48.170;8.596;2022-07-30T13:22:46;31.30;79.70
21662;DHT22;10992;48.170;8.596;2022-07-30T13:25:13;31.20;79.20
21662;DHT22;10992;48.170;8.596;2022-07-30T13:27:40;30.60;81.80
21662;DHT22;10992;48.170;8.596;2022-07-30T13:30:07;30.70;80.40
21662;DHT22;10992;48.170;8.596;2022-07-30T13:32:34;30.70;79.60
21662;DHT22;10992;48.170;8.596;2022-07-30T13:35:02;30.70;79.60
21662;DHT22;10992;48.170;8.596;2022-07-30T13:37:30;31.10;80.30
21662;DHT22;10992;48.170;8.596;2022-07-30T13:40:05;31.00;79.40
21662;DHT22;10992;48.170;8.596;2022-07-30T13:42:32;30.70;81.10
21662;DHT22;10992;48.170;8.596;2022-07-30T13:44:59;30.10;81.20
21662;DHT22;10992;48.170;8.596;2022-07-30T13:47:26;29.20;81.90
21662;DHT22;10992;48.170;8.596;2022-07-30T13:49:53;29.10;83.00
21662;DHT22;10992;48.170;8.596;2022-07-30T13:52:20;29.70;84.10
21662;DHT22;10992;48.170;8.596;2022-07-30T13:54:47;30.30;83.20
21662;DHT22;10992;48.170;8.596;2022-07-30T13:57:16;30.40;81.70
21662;DHT22;10992;48.170;8.596;2022-07-30T13:59:43;29.50;84.00
21662;DHT22;10992;48.170;8.596;2022-07-30T14:02:10;29.40;84.80
21662;DHT22;10992;48.170;8.596;2022-07-30T14:04:37;30.10;82.60
21662;DHT22;10992;48.170;8.596;2022-07-30T14:07:04;29.20;84.60
21662;DHT22;10992;48.170;8.596;2022-07-30T14:09:31;29.10;85.00
21662;DHT22;10992;48.170;8.596;2022-07-30T14:12:10;28.80;85.10
21662;DHT22;10992;48.170;8.596;2022-07-30T14:14:37;28.50;85.00
21662;DHT22;10992;48.170;8.596;2022-07-30T14:17:04;29.00;85.40
21662;DHT22;10992;48.170;8.596;2022-07-30T14:19:31;29.80;84.40
21662;DHT22;10992;48.170;8.596;2022-07-30T14:21:57;30.50;81.30
21662;DHT22;10992;48.170;8.596;2022-07-30T14:24:24;30.80;81.40
21662;DHT22;10992;48.170;8.596;2022-07-30T14:26:51;30.90;81.50
21662;DHT22;10992;48.170;8.596;2022-07-30T14:29:25;31.50;82.00
21662;DHT22;10992;48.170;8.596;2022-07-30T14:31:53;31.00;79.10
21662;DHT22;10992;48.170;8.596;2022-07-30T14:34:20;31.20;80.50
21662;DHT22;10992;48.170;8.596;2022-07-30T14:36:47;30.50;80.70
21662;DHT22;10992;48.170;8.596;2022-07-30T14:39:14;29.50;82.60
21662;DHT22;10992;48.170;8.596;2022-07-30T14:41:41;29.20;84.00
21662;DHT22;10992;48.170;8.596;2022-07-30T14:44:08;29.40;84.80
21662;DHT22;10992;48.170;8.596;2022-07-30T14:46:38;29.30;83.00
21662;DHT22;10992;48.170;8.596;2022-07-30T14:49:19;28.90;83.80
21662;DHT22;10992;48.170;8.596;2022-07-30T14:51:46;28.60;84.10
21662;DHT22;10992;48.170;8.596;2022-07-30T14:54:13;29.10;82.90
21662;DHT22;10992;48.170;8.596;2022-07-30T14:56:40;29.40;80.50
21662;DHT22;10992;48.170;8.596;2022-07-30T14:59:07;29.70;81.20
21662;DHT22;10992;48.170;8.596;2022-07-30T15:01:34;29.70;81.30
21662;DHT22;10992;48.170;8.596;2022-07-30T15:04:02;29.50;81.50
21662;DHT22;10992;48.170;8.596;2022-07-30T15:06:29;29.50;82.60
21662;DHT22;10992;48.170;8.596;2022-07-30T15:08:56;29.00;82.80
21662;DHT22;10992;48.170;8.596;2022-07-30T15:11:23;28.40;83.20
21662;DHT22;10992;48.170;8.596;2022-07-30T15:13:51;28.50;83.40
21662;DHT22;10992;48.170;8.596;2022-07-30T15:16:18;28.10;84.80
21662;DHT22;10992;48.170;8.596;2022-07-30T15:18:46;28.10;84.40
21662;DHT22;10992;48.170;8.596;2022-07-30T15:21:13;28.30;85.10
21662;DHT22;10992;48.170;8.596;2022-07-30T15:23:40;28.10;85.70
21662;DHT22;10992;48.170;8.596;2022-07-30T15:26:07;27.90;86.00
21662;DHT22;10992;48.170;8.596;2022-07-30T15:28:33;27.90;86.30
21662;DHT22;10992;48.170;8.596;2022-07-30T15:31:00;27.70;86.40
21662;DHT22;10992;48.170;8.596;2022-07-30T15:33:30;28.40;86.10
21662;DHT22;10992;48.170;8.596;2022-07-30T15:36:02;28.80;83.70
21662;DHT22;10992;48.170;8.596;2022-07-30T15:38:29;28.70;83.50
21662;DHT22;10992;48.170;8.596;2022-07-30T15:40:56;27.80;84.00
21662;DHT22;10992;48.170;8.596;2022-07-30T15:43:22;27.70;84.50
21662;DHT22;10992;48.170;8.596;2022-07-30T15:45:49;27.50;84.30
21662;DHT22;10992;48.170;8.596;2022-07-30T15:48:25;27.20;85.00
21662;DHT22;10992;48.170;8.596;2022-07-30T15:50:59;26.60;86.90
21662;DHT22;10992;48.170;8.596;2022-07-30T15:53:28;26.60;87.60
21662;DHT22;10992;48.170;8.596;2022-07-30T15:55:56;27.00;88.80
21662;DHT22;10992;48.170;8.596;2022-07-30T15:58:23;26.70;87.30
21662;DHT22;10992;48.170;8.596;2022-07-30T16:00:50;26.70;88.00
21662;DHT22;10992;48.170;8.596;2022-07-30T16:03:17;26.80;88.60
21662;DHT22;10992;48.170;8.596;2022-07-30T16:05:44;26.60;88.20
21662;DHT22;10992;48.170;8.596;2022-07-30T16:08:19;26.60;88.80
21662;DHT22;10992;48.170;8.596;2022-07-30T16:10:47;26.70;89.60
21662;DHT22;10992;48.170;8.596;2022-07-30T16:13:14;26.70;89.20
21662;DHT22;10992;48.170;8.596;2022-07-30T16:15:41;26.80;89.30
21662;DHT22;10992;48.170;8.596;2022-07-30T16:18:08;27.10;88.40
21662;DHT22;10992;48.170;8.596;2022-07-30T16:20:35;26.90;89.40
21662;DHT22;10992;48.170;8.596;2022-07-30T16:23:02;27.10;88.50
21662;DHT22;10992;48.170;8.596;2022-07-30T16:25:32;26.60;88.80